Time;durP1;ratioP1;P1;durP2;ratioP2;P2;SDS_P1;SDS_P2;PMS_P1;PMS_P2;Temp;Humidity;BMP_temperature;BMP_pressure;BME280_temperature;BME280_humidity;BME280_pressure;Samples;Min_cycle;Max_cycle;Signal;HPM_P1;HPM_P2
2022/06/07 00:00:00;;;;;;;;;;;;;;;14.57;90.33;95251.06;5117257;28;1023;-49
2022/06/07 00:02:30;;;;;;;;;;;;;;;14.64;90.08;95248.47;5116877;28;1036;-49
2022/06/07 00:04:56;;;;;;;;;;;;;;;14.49;89.46;95245.72;5117053;28;1987;-49
2022/06/07 00:07:23;;;;;;;;;;;;;;;14.43;90.38;95252.66;5096811;28;1161;-49
2022/06/07 00:09:50;;;;;;;;;;;;;;;14.41;89.11;95249.31;5096622;28;1080;-49
2022/06/07 00:12:17;;;;;;;;;;;;;;;14.43;90.38;95247.28;5096458;28;1850;-49
2022/06/07 00:14:43;;;;;;;;;;;;;;;14.54;89.16;95251.38;5096386;28;1036;-49
2022/06/07 00:17:09;;;;;;;;;;;;;;;14.53;89.27;95238.13;5096366;28;1056;-49
2022/06/07 00:19:35;;;;;;;;;;;;;;;14.48;90.13;95244.06;5096272;28;1183;-49
2022/06/07 00:22:02;;;;;;;;;;;;;;;14.23;90.10;95238.91;5096460;28;991;-49
2022/06/07 00:24:28;;;;;;;;;;;;;;;14.14;91.54;95237.28;5096294;28;1905;-49
2022/06/07 00:26:54;;;;;;;;;;;;;;;14.31;91.30;95240.69;5096157;28;1103;-49
2022/06/07 00:29:21;;;;;;;;;;;;;;;14.31;90.73;95239.84;5096172;28;1976;-49
2022/06/07 00:31:47;;;;;;;;;;;;;;;14.49;91.22;95243.03;5096028;28;921;-49
2022/06/07 00:34:14;;;;;;;;;;;;;;;14.60;90.14;95239.09;5096184;28;964;-49
2022/06/07 00:36:40;;;;;;;;;;;;;;;14.60;90.01;95242.59;5096154;28;964;-49
2022/06/07 00:39:07;;;;;;;;;;;;;;;14.69;89.14;95239.84;5096375;28;973;-49
2022/06/07 00:41:33;;;;;;;;;;;;;;;14.68;89.62;95235.47;5095770;28;1281;-49
2022/06/07 00:44:18;;;;;;;;;;;;;;;14.64;89.67;95243.06;5095974;28;1902;-49
2022/06/07 00:46:45;;;;;;;;;;;;;;;14.63;89.14;95238.72;5095618;28;1836;-49
2022/06/07 00:49:12;;;;;;;;;;;;;;;14.54;89.77;95250.56;5096150;28;960;-49
2022/06/07 00:51:39;;;;;;;;;;;;;;;14.53;90.43;95238.13;5095689;28;1349;-49
2022/06/07 00:54:05;;;;;;;;;;;;;;;14.42;88.51;95242.09;5095712;28;952;-49
2022/06/07 00:56:32;;;;;;;;;;;;;;;14.19;89.01;95239.44;5094492;28;1079;-49
2022/06/07 00:59:03;;;;;;;;;;;;;;;14.23;90.15;95246.97;5095649;28;1028;-49
2022/06/07 01:01:32;;;;;;;;;;;;;;;14.31;89.84;95243.38;5095016;28;996;-49
2022/06/07 01:03:58;;;;;;;;;;;;;;;14.34;90.10;95240.31;5095322;28;1975;-49
2022/06/07 01:11:53;;;;;;;;;;;;;;;14.21;89.15;95245.50;5116074;28;1046;-49
2022/06/07 01:14:19;;;;;;;;;;;;;;;14.19;88.58;95242.13;5115879;28;999;-49
2022/06/07 01:16:46;;;;;;;;;;;;;;;14.15;89.52;95241.66;5115894;28;969;-49
2022/06/07 01:19:12;;;;;;;;;;;;;;;14.31;90.34;95242.53;5115806;27;1051;-49
2022/06/07 01:21:40;;;;;;;;;;;;;;;14.40;90.32;95242.28;5115834;28;1120;-49
2022/06/07 01:24:06;;;;;;;;;;;;;;;14.38;90.31;95243.47;5115161;28;1910;-49
2022/06/07 01:26:32;;;;;;;;;;;;;;;14.30;90.22;95239.00;5115407;28;964;-49
2022/06/07 01:28:58;;;;;;;;;;;;;;;14.09;89.68;95239.69;5115267;28;1281;-49
2022/06/07 01:31:25;;;;;;;;;;;;;;;13.83;89.59;95240.91;5115829;28;997;-49
2022/06/07 01:33:51;;;;;;;;;;;;;;;13.86;90.27;95245.06;5115518;28;1015;-49
2022/06/07 01:36:17;;;;;;;;;;;;;;;13.89;90.06;95242.03;5115355;28;1067;-49
2022/06/07 01:38:44;;;;;;;;;;;;;;;14.06;90.63;95240.06;5115301;28;1019;-49
2022/06/07 01:43:56;;;;;;;;;;;;;;;14.31;90.00;95245.22;5115206;28;1979;-49
2022/06/07 01:46:22;;;;;;;;;;;;;;;14.31;89.50;95235.31;5115264;28;977;-49
2022/06/07 01:48:48;;;;;;;;;;;;;;;14.21;89.40;95238.25;5114898;28;1832;-49
2022/06/07 01:51:14;;;;;;;;;;;;;;;13.99;88.77;95231.03;5115182;28;1575;-50
2022/06/07 01:53:41;;;;;;;;;;;;;;;13.67;89.89;95227.56;5114520;27;1190;-49
2022/06/07 01:56:10;;;;;;;;;;;;;;;13.60;90.98;95221.22;5115221;28;1119;-49
2022/06/07 01:58:38;;;;;;;;;;;;;;;13.60;90.93;95226.59;5114626;28;1016;-49
2022/06/07 02:01:04;;;;;;;;;;;;;;;13.51;91.36;95230.34;5114846;28;1036;-49
2022/06/07 02:03:30;;;;;;;;;;;;;;;13.72;91.65;95229.75;5114662;28;1977;-49
2022/06/07 02:05:59;;;;;;;;;;;;;;;13.93;91.08;95221.84;5106913;28;1160;-49
2022/06/07 02:08:26;;;;;;;;;;;;;;;13.99;91.22;95222.97;5094035;28;1027;-49
2022/06/07 02:10:53;;;;;;;;;;;;;;;14.02;90.34;95225.31;5094430;28;965;-49
2022/06/07 02:13:19;;;;;;;;;;;;;;;13.99;89.86;95228.34;5094229;28;956;-49
2022/06/07 02:15:46;;;;;;;;;;;;;;;13.90;89.05;95230.25;5094319;28;973;-49
2022/06/07 02:18:12;;;;;;;;;;;;;;;13.72;89.90;95230.56;5094141;28;1068;-50
2022/06/07 02:20:39;;;;;;;;;;;;;;;13.53;91.10;95233.72;5094197;28;976;-49
2022/06/07 02:23:05;;;;;;;;;;;;;;;13.52;91.32;95240.94;5093812;28;1910;-49
2022/06/07 02:25:35;;;;;;;;;;;;;;;13.75;91.31;95240.09;5093752;28;1028;-49
2022/06/07 02:28:01;;;;;;;;;;;;;;;13.88;90.96;95253.78;5093800;28;1102;-49
2022/06/07 02:30:28;;;;;;;;;;;;;;;14.02;90.98;95246.81;5094055;28;958;-49
2022/06/07 02:32:54;;;;;;;;;;;;;;;14.14;91.94;95253.44;5093932;28;1851;-49
2022/06/07 02:35:20;;;;;;;;;;;;;;;14.19;91.67;95253.72;5094023;28;1041;-49
2022/06/07 02:37:46;;;;;;;;;;;;;;;14.15;91.39;95263.19;5093653;28;1099;-49
2022/06/07 02:40:12;;;;;;;;;;;;;;;14.21;92.06;95272.38;5093920;28;950;-49
2022/06/07 02:42:38;;;;;;;;;;;;;;;14.28;92.83;95262.53;5093762;28;1037;-50
2022/06/07 02:45:05;;;;;;;;;;;;;;;14.41;92.98;95265.47;5093554;28;1906;-49
2022/06/07 02:47:31;;;;;;;;;;;;;;;14.49;91.78;95261.84;5093648;28;949;-49
2022/06/07 02:49:57;;;;;;;;;;;;;;;14.32;91.79;95265.72;5093545;28;1008;-49
2022/06/07 02:52:23;;;;;;;;;;;;;;;14.15;93.27;95263.19;5093386;28;1088;-49
2022/06/07 02:54:49;;;;;;;;;;;;;;;14.03;94.04;95260.06;5093199;28;1068;-49
2022/06/07 02:57:15;;;;;;;;;;;;;;;14.04;93.84;95259.06;5093760;28;1015;-49
2022/06/07 02:59:41;;;;;;;;;;;;;;;14.31;94.49;95261.38;5093559;28;1008;-49
2022/06/07 03:02:07;;;;;;;;;;;;;;;14.54;94.26;95264.00;5092580;28;996;-49
2022/06/07 03:04:33;;;;;;;;;;;;;;;14.66;93.87;95273.31;5093422;28;1915;-51
2022/06/07 03:07:00;;;;;;;;;;;;;;;14.69;94.26;95275.66;5110186;28;1228;-49
2022/06/07 03:09:26;;;;;;;;;;;;;;;14.81;93.24;95273.34;5113499;28;1106;-49
2022/06/07 03:11:52;;;;;;;;;;;;;;;14.93;92.87;95271.88;5113949;28;1044;-49
2022/06/07 03:14:19;;;;;;;;;;;;;;;14.97;92.96;95270.50;5113550;28;1032;-49
2022/06/07 03:16:45;;;;;;;;;;;;;;;15.03;94.19;95266.22;5113908;28;1027;-49
2022/06/07 03:19:10;;;;;;;;;;;;;;;15.11;93.50;95270.69;5113596;28;1047;-49
2022/06/07 03:21:37;;;;;;;;;;;;;;;15.18;94.44;95274.31;5113810;28;999;-49
2022/06/07 03:24:03;;;;;;;;;;;;;;;15.23;95.05;95277.25;5116047;28;1902;-49
2022/06/07 03:26:29;;;;;;;;;;;;;;;15.29;94.75;95281.06;5116700;28;1012;-49
2022/06/07 03:28:56;;;;;;;;;;;;;;;15.34;94.52;95279.47;5117892;28;1062;-49
2022/06/07 03:31:22;;;;;;;;;;;;;;;15.40;95.49;95283.28;5117566;28;1032;-49
2022/06/07 03:33:48;;;;;;;;;;;;;;;15.56;93.98;95293.03;5117746;28;1106;-49
2022/06/07 03:36:14;;;;;;;;;;;;;;;15.59;93.75;95290.78;5117509;28;1071;-49
2022/06/07 03:38:41;;;;;;;;;;;;;;;15.60;94.13;95297.00;5117524;28;1048;-49
2022/06/07 03:41:07;;;;;;;;;;;;;;;15.62;94.12;95289.56;5117391;28;1040;-49
2022/06/07 03:43:33;;;;;;;;;;;;;;;15.58;95.24;95297.19;5117389;28;1906;-49
2022/06/07 03:46:10;;;;;;;;;;;;;;;15.60;95.00;95292.44;5117456;28;949;-49
2022/06/07 03:48:36;;;;;;;;;;;;;;;15.62;95.40;95290.41;5117391;28;954;-49
2022/06/07 03:51:02;;;;;;;;;;;;;;;15.65;95.11;95294.59;5117295;28;1071;-49
2022/06/07 03:53:28;;;;;;;;;;;;;;;15.61;95.92;95296.81;5116818;28;1218;-50
2022/06/07 03:55:55;;;;;;;;;;;;;;;15.62;96.07;95303.03;5117235;28;931;-49
2022/06/07 03:58:21;;;;;;;;;;;;;;;15.59;95.14;95300.72;5117325;28;1019;-51
2022/06/07 04:00:47;;;;;;;;;;;;;;;15.59;95.53;95298.88;5116988;28;1011;-51
2022/06/07 04:03:13;;;;;;;;;;;;;;;15.61;95.80;95296.81;5117016;28;1988;-49
2022/06/07 04:05:40;;;;;;;;;;;;;;;15.69;95.46;95295.88;5111392;27;1212;-49
2022/06/07 04:08:13;;;;;;;;;;;;;;;15.73;95.57;95299.91;5097091;28;1095;-49
2022/06/07 04:10:56;;;;;;;;;;;;;;;15.74;94.46;95306.13;5096383;28;1028;-51
2022/06/07 04:13:24;;;;;;;;;;;;;;;15.69;94.42;95303.09;5096593;28;1032;-50
2022/06/07 04:15:50;;;;;;;;;;;;;;;15.70;94.30;95305.63;5096636;28;961;-49
2022/06/07 04:18:16;;;;;;;;;;;;;;;15.73;94.09;95309.81;5096813;28;972;-49
2022/06/07 04:20:42;;;;;;;;;;;;;;;15.41;95.91;95307.34;5096280;28;1095;-49
2022/06/07 04:23:12;;;;;;;;;;;;;;;15.33;96.22;95312.84;5096650;28;1910;-49
2022/06/07 04:25:40;;;;;;;;;;;;;;;15.42;95.31;95318.94;5095847;28;1300;-49
2022/06/07 04:28:06;;;;;;;;;;;;;;;15.53;95.49;95320.34;5096625;28;971;-49
2022/06/07 04:30:33;;;;;;;;;;;;;;;15.57;96.76;95317.06;5095941;28;1027;-50
2022/06/07 04:32:59;;;;;;;;;;;;;;;15.73;95.02;95316.06;5096570;28;1008;-49
2022/06/07 04:35:25;;;;;;;;;;;;;;;15.74;94.67;95311.50;5095910;28;1016;-49
2022/06/07 04:37:52;;;;;;;;;;;;;;;15.76;95.69;95309.44;5096077;28;1092;-49
2022/06/07 04:40:17;;;;;;;;;;;;;;;15.85;95.42;95318.28;5095949;28;1020;-49
2022/06/07 04:42:44;;;;;;;;;;;;;;;15.95;94.96;95308.00;5095839;28;1016;-53
2022/06/07 04:45:14;;;;;;;;;;;;;;;16.04;95.20;95300.66;5095844;28;1991;-50
2022/06/07 04:47:41;;;;;;;;;;;;;;;16.12;93.01;95314.81;5095809;28;1075;-49
2022/06/07 04:50:07;;;;;;;;;;;;;;;16.10;94.33;95313.34;5096186;28;967;-49
2022/06/07 04:52:33;;;;;;;;;;;;;;;16.00;93.55;95327.16;5095578;28;1124;-49
2022/06/07 04:54:59;;;;;;;;;;;;;;;16.11;93.43;95317.75;5095511;28;1979;-49
2022/06/07 04:57:25;;;;;;;;;;;;;;;16.22;93.32;95325.34;5095554;28;996;-49
2022/06/07 04:59:52;;;;;;;;;;;;;;;16.21;93.31;95329.03;5095695;28;1094;-50
2022/06/07 05:02:18;;;;;;;;;;;;;;;16.19;93.15;95334.63;5095864;28;1011;-50
2022/06/07 05:04:45;;;;;;;;;;;;;;;16.24;92.56;95333.19;5094440;28;1914;-49
2022/06/07 05:07:11;;;;;;;;;;;;;;;16.38;91.14;95335.84;5113973;28;1169;-49
2022/06/07 05:09:37;;;;;;;;;;;;;;;16.47;91.37;95341.13;5115884;28;1023;-49
2022/06/07 05:12:04;;;;;;;;;;;;;;;16.45;92.08;95335.94;5115707;28;1071;-49
2022/06/07 05:14:30;;;;;;;;;;;;;;;16.48;91.79;95332.81;5115927;28;964;-49
2022/06/07 05:16:57;;;;;;;;;;;;;;;16.46;93.51;95342.97;5115827;28;944;-49
2022/06/07 05:19:23;;;;;;;;;;;;;;;16.37;93.96;95341.44;5115960;28;1022;-49
2022/06/07 05:21:50;;;;;;;;;;;;;;;16.39;94.12;95342.09;5115645;28;954;-49
2022/06/07 05:24:16;;;;;;;;;;;;;;;16.38;94.25;95346.63;5115657;28;2000;-49
2022/06/07 05:26:45;;;;;;;;;;;;;;;16.34;94.39;95339.13;5115332;28;981;-49
2022/06/07 05:29:15;;;;;;;;;;;;;;;16.49;94.28;95341.78;5115806;28;1034;-49
2022/06/07 05:31:41;;;;;;;;;;;;;;;16.68;92.84;95345.69;5115287;28;1052;-49
2022/06/07 05:34:08;;;;;;;;;;;;;;;16.68;93.19;95351.09;5115665;28;1011;-49
2022/06/07 05:36:34;;;;;;;;;;;;;;;16.67;94.40;95354.81;5115142;28;1028;-49
2022/06/07 05:39:03;;;;;;;;;;;;;;;16.64;94.69;95352.47;5115292;28;1112;-49
2022/06/07 05:41:32;;;;;;;;;;;;;;;16.61;95.58;95351.00;5115009;28;1067;-49
2022/06/07 05:43:59;;;;;;;;;;;;;;;16.73;94.37;95354.03;5115427;28;2017;-48
2022/06/07 05:46:25;;;;;;;;;;;;;;;16.95;92.83;95354.88;5114811;28;1019;-50
2022/06/07 05:48:51;;;;;;;;;;;;;;;17.00;94.06;95360.53;5115133;28;1047;-50
2022/06/07 05:51:17;;;;;;;;;;;;;;;17.15;91.34;95353.16;5115279;28;1040;-50
2022/06/07 05:53:43;;;;;;;;;;;;;;;17.25;91.29;95351.97;5114532;28;1851;-50
2022/06/07 05:56:11;;;;;;;;;;;;;;;17.20;93.53;95354.44;5114931;28;1039;-50
2022/06/07 05:58:38;;;;;;;;;;;;;;;17.17;93.66;95353.78;5114744;28;1075;-50
2022/06/07 06:01:04;;;;;;;;;;;;;;;17.35;91.68;95342.47;5114896;28;1114;-50
2022/06/07 06:03:31;;;;;;;;;;;;;;;17.44;92.93;95345.84;5114485;28;1914;-50
2022/06/07 06:05:57;;;;;;;;;;;;;;;17.54;93.08;95348.19;5107079;28;1216;-50
2022/06/07 06:11:16;;;;;;;;;;;;;;;18.04;88.84;95332.66;5094594;28;1055;-50
2022/06/07 06:13:42;;;;;;;;;;;;;;;17.98;90.99;95330.72;5094042;28;1001;-50
2022/06/07 06:16:10;;;;;;;;;;;;;;;17.92;89.44;95337.78;5094500;28;1032;-50
2022/06/07 06:18:39;;;;;;;;;;;;;;;18.09;90.27;95326.63;5093949;28;1048;-50
2022/06/07 06:21:06;;;;;;;;;;;;;;;18.05;89.19;95328.06;5094186;28;1079;-50
2022/06/07 06:23:32;;;;;;;;;;;;;;;18.00;89.60;95327.81;5093837;28;2001;-50
2022/06/07 06:25:58;;;;;;;;;;;;;;;17.97;88.21;95337.19;5094229;28;1119;-50
2022/06/07 06:28:25;;;;;;;;;;;;;;;17.94;91.28;95330.28;5092921;28;989;-50
2022/06/07 06:30:52;;;;;;;;;;;;;;;17.98;89.86;95327.19;5094028;28;1024;-50
2022/06/07 06:33:18;;;;;;;;;;;;;;;17.95;91.68;95323.03;5094114;28;960;-50
2022/06/07 06:35:48;;;;;;;;;;;;;;;17.79;91.46;95337.69;5093910;28;1049;-50
2022/06/07 06:38:15;;;;;;;;;;;;;;;17.67;90.71;95326.63;5093919;28;1031;-50
2022/06/07 06:40:42;;;;;;;;;;;;;;;17.85;91.34;95325.28;5094020;28;1016;-50
2022/06/07 06:43:08;;;;;;;;;;;;;;;18.02;89.02;95321.19;5093637;28;1879;-50
2022/06/07 06:45:34;;;;;;;;;;;;;;;18.21;88.05;95316.03;5093711;28;1961;-50
2022/06/07 06:48:01;;;;;;;;;;;;;;;18.26;87.38;95319.78;5093505;28;1080;-48
2022/06/07 06:50:27;;;;;;;;;;;;;;;18.26;89.67;95311.66;5093614;28;1016;-48
2022/06/07 06:52:53;;;;;;;;;;;;;;;18.33;88.45;95314.41;5093395;28;1191;-48
2022/06/07 06:55:19;;;;;;;;;;;;;;;18.44;87.81;95313.78;5093329;28;1995;-48
2022/06/07 06:57:47;;;;;;;;;;;;;;;18.43;89.50;95317.53;5091641;28;970;-48
2022/06/07 07:00:13;;;;;;;;;;;;;;;18.48;88.58;95312.34;5093741;28;1043;-48
2022/06/07 07:02:39;;;;;;;;;;;;;;;18.64;88.33;95312.97;5093503;28;981;-48
2022/06/07 07:05:05;;;;;;;;;;;;;;;18.67;87.45;95318.81;5093994;28;1902;-48
2022/06/07 07:07:31;;;;;;;;;;;;;;;18.95;88.05;95319.66;5114057;28;973;-49
2022/06/07 07:09:57;;;;;;;;;;;;;;;19.24;86.36;95308.38;5113542;28;1040;-49
2022/06/07 07:12:23;;;;;;;;;;;;;;;19.21;83.87;95319.63;5113844;28;1051;-49
2022/06/07 07:14:49;;;;;;;;;;;;;;;19.21;82.67;95302.56;5113652;28;973;-49
2022/06/07 07:17:15;;;;;;;;;;;;;;;19.13;83.67;95310.91;5113776;28;1012;-49
2022/06/07 07:19:42;;;;;;;;;;;;;;;19.13;84.90;95310.91;5113442;28;1024;-49
2022/06/07 07:22:08;;;;;;;;;;;;;;;18.90;84.32;95295.94;5113650;28;950;-48
2022/06/07 07:24:34;;;;;;;;;;;;;;;18.87;85.69;95302.56;5113016;28;1952;-48
2022/06/07 07:27:00;;;;;;;;;;;;;;;19.18;83.89;95295.69;5113789;28;1032;-49
2022/06/07 07:29:26;;;;;;;;;;;;;;;19.22;83.14;95294.22;5113620;28;1016;-48
2022/06/07 07:31:52;;;;;;;;;;;;;;;19.30;85.55;95290.44;5113543;28;1024;-49
2022/06/07 07:34:18;;;;;;;;;;;;;;;19.36;83.44;95291.47;5113390;28;798;-49
2022/06/07 07:36:46;;;;;;;;;;;;;;;19.48;83.37;95287.03;5113712;28;1051;-49
2022/06/07 07:39:12;;;;;;;;;;;;;;;19.68;84.14;95276.97;5113559;28;1019;-49
2022/06/07 07:41:39;;;;;;;;;;;;;;;19.86;80.70;95278.16;5113390;28;1112;-49
2022/06/07 07:44:07;;;;;;;;;;;;;;;20.08;82.29;95289.56;5113462;28;2027;-49
2022/06/07 07:46:35;;;;;;;;;;;;;;;20.21;81.84;95277.78;5113365;28;1070;-49
2022/06/07 07:49:03;;;;;;;;;;;;;;;20.41;81.90;95291.22;5113434;28;1115;-49
2022/06/07 07:51:30;;;;;;;;;;;;;;;20.47;80.35;95285.75;5113550;28;968;-48
2022/06/07 07:53:57;;;;;;;;;;;;;;;20.66;80.57;95278.56;5112969;28;1027;-49
2022/06/07 07:56:23;;;;;;;;;;;;;;;20.83;80.64;95277.97;5113602;28;941;-49
2022/06/07 07:58:50;;;;;;;;;;;;;;;21.30;79.70;95278.38;5113471;28;1048;-49
2022/06/07 08:01:21;;;;;;;;;;;;;;;21.36;80.10;95282.09;5113311;28;1039;-49
2022/06/07 08:03:48;;;;;;;;;;;;;;;21.34;79.13;95279.63;5113362;28;1909;-49
2022/06/07 08:06:17;;;;;;;;;;;;;;;21.51;77.93;95270.88;5103226;28;1161;-48
2022/06/07 08:08:43;;;;;;;;;;;;;;;21.63;80.03;95266.34;5092988;28;962;-48
2022/06/07 08:11:10;;;;;;;;;;;;;;;21.53;79.64;95260.59;5096925;28;1007;-48
2022/06/07 08:13:36;;;;;;;;;;;;;;;21.57;75.88;95261.78;5096712;28;984;-48
2022/06/07 08:16:04;;;;;;;;;;;;;;;21.22;77.12;95255.03;5096524;28;966;-49
2022/06/07 08:18:30;;;;;;;;;;;;;;;21.53;81.68;95253.28;5096689;28;981;-49
2022/06/07 08:21:00;;;;;;;;;;;;;;;21.70;78.35;95248.03;5096621;28;988;-49
2022/06/07 08:23:28;;;;;;;;;;;;;;;21.96;80.46;95246.03;5096518;28;1967;-49
2022/06/07 08:25:55;;;;;;;;;;;;;;;21.99;77.19;95240.97;5096306;28;1008;-48
2022/06/07 08:28:22;;;;;;;;;;;;;;;21.98;77.49;95241.19;5096422;28;1075;-49
2022/06/07 08:30:48;;;;;;;;;;;;;;;21.81;78.69;95239.09;5096340;28;964;-49
2022/06/07 08:38:43;;;;;;;;;;;;;;;22.36;79.29;95227.25;5096004;28;1129;-49
2022/06/07 08:41:25;;;;;;;;;;;;;;;22.59;77.90;95220.19;5095983;28;1049;-48
2022/06/07 08:43:51;;;;;;;;;;;;;;;22.86;77.02;95222.47;5096282;28;1991;-48
2022/06/07 08:46:19;;;;;;;;;;;;;;;22.79;76.78;95219.88;5096054;28;957;-48
2022/06/07 08:48:45;;;;;;;;;;;;;;;22.81;77.14;95224.03;5096024;28;1059;-48
2022/06/07 08:51:12;;;;;;;;;;;;;;;22.88;77.17;95212.16;5095870;28;1026;-48
2022/06/07 08:53:40;;;;;;;;;;;;;;;23.02;75.22;95213.59;5095440;28;1337;-49
2022/06/07 08:56:13;;;;;;;;;;;;;;;23.11;72.89;95212.22;5095603;28;1059;-49
2022/06/07 08:58:41;;;;;;;;;;;;;;;23.25;75.01;95199.13;5095990;28;969;-49
2022/06/07 09:01:16;;;;;;;;;;;;;;;23.44;72.71;95199.00;5095908;28;995;-49
2022/06/07 09:04:02;;;;;;;;;;;;;;;23.36;72.19;95202.94;5095882;28;1906;-48
2022/06/07 09:06:33;;;;;;;;;;;;;;;23.46;72.33;95191.41;5107690;28;1219;-48
2022/06/07 09:08:59;;;;;;;;;;;;;;;23.61;71.66;95193.63;5115944;28;1029;-48
2022/06/07 09:14:30;;;;;;;;;;;;;;;23.68;70.31;95177.94;5115794;28;1120;-48
2022/06/07 09:16:57;;;;;;;;;;;;;;;23.81;71.93;95185.88;5115617;28;972;-48
2022/06/07 09:19:25;;;;;;;;;;;;;;;23.92;71.97;95179.53;5115983;28;969;-48
2022/06/07 09:21:52;;;;;;;;;;;;;;;23.81;72.29;95180.41;5114759;28;968;-48
2022/06/07 09:24:24;;;;;;;;;;;;;;;23.92;71.22;95170.50;5115617;27;1934;-48
2022/06/07 09:26:50;;;;;;;;;;;;;;;23.90;68.57;95168.03;5115732;28;1028;-54
2022/06/07 09:29:18;;;;;;;;;;;;;;;23.90;70.16;95170.75;5116119;28;1032;-48
2022/06/07 09:31:46;;;;;;;;;;;;;;;24.02;69.67;95161.66;5115279;28;1079;-49
2022/06/07 09:34:17;;;;;;;;;;;;;;;24.02;67.31;95156.19;5114272;28;1091;-49
2022/06/07 09:36:46;;;;;;;;;;;;;;;23.92;68.58;95154.13;5115426;28;1032;-49
2022/06/07 09:39:15;;;;;;;;;;;;;;;23.95;69.12;95150.91;5115401;28;1078;-49
2022/06/07 09:41:47;;;;;;;;;;;;;;;24.02;68.72;95151.59;5115404;28;952;-48
2022/06/07 09:44:23;;;;;;;;;;;;;;;24.16;68.15;95152.91;5115179;28;1989;-49
2022/06/07 09:47:09;;;;;;;;;;;;;;;24.22;64.37;95151.09;5115438;28;961;-49
2022/06/07 09:49:41;;;;;;;;;;;;;;;24.25;68.09;95145.16;5101112;28;1923;-49
2022/06/07 09:52:10;;;;;;;;;;;;;;;24.46;67.35;95140.03;5114769;28;1572;-49
2022/06/07 09:54:40;;;;;;;;;;;;;;;24.53;66.69;95138.00;5115087;28;1044;-49
2022/06/07 09:57:25;;;;;;;;;;;;;;;24.61;65.46;95132.09;5115199;28;958;-49
2022/06/07 10:00:02;;;;;;;;;;;;;;;24.54;68.08;95125.97;5115232;28;1008;-49
2022/06/07 10:02:36;;;;;;;;;;;;;;;24.43;61.12;95126.88;5114727;28;1016;-49
2022/06/07 10:05:20;;;;;;;;;;;;;;;24.35;62.46;95118.00;5114660;28;1894;-49
2022/06/07 10:08:07;;;;;;;;;;;;;;;24.49;64.45;95117.66;5094148;28;1024;-50
2022/06/07 10:10:46;;;;;;;;;;;;;;;24.48;57.99;95110.56;5094481;28;976;-49
2022/06/07 10:13:12;;;;;;;;;;;;;;;24.28;51.58;95106.44;5094372;28;972;-49
2022/06/07 10:15:41;;;;;;;;;;;;;;;24.35;57.50;95101.59;5094125;28;1071;-49
2022/06/07 10:18:10;;;;;;;;;;;;;;;24.48;60.91;95097.72;5094409;28;1000;-49
2022/06/07 10:20:48;;;;;;;;;;;;;;;24.57;61.30;95094.56;5094323;28;1044;-49
2022/06/07 10:23:38;;;;;;;;;;;;;;;24.78;61.85;95090.25;5094207;28;1031;-49
2022/06/07 10:26:22;;;;;;;;;;;;;;;24.88;62.37;95087.66;5085778;28;1677;-49
2022/06/07 10:29:18;;;;;;;;;;;;;;;24.92;59.68;95081.41;5094325;28;972;-49
2022/06/07 10:31:44;;;;;;;;;;;;;;;25.01;57.46;95075.53;5080596;28;1314;-50
2022/06/07 10:34:27;;;;;;;;;;;;;;;25.06;56.99;95081.91;5093956;28;1024;-49
2022/06/07 10:36:56;;;;;;;;;;;;;;;24.95;54.79;95071.91;5093747;28;1032;-49
2022/06/07 10:39:22;;;;;;;;;;;;;;;24.90;57.18;95072.66;5093939;28;969;-49
2022/06/07 10:41:48;;;;;;;;;;;;;;;24.86;53.28;95062.47;5093691;28;1024;-49
2022/06/07 10:44:33;;;;;;;;;;;;;;;24.96;54.80;95059.88;5094044;28;1914;-49
2022/06/07 10:47:09;;;;;;;;;;;;;;;24.96;55.84;95048.94;5093567;28;1036;-49
2022/06/07 10:49:43;;;;;;;;;;;;;;;24.94;55.12;95049.19;5093875;28;1009;-49
2022/06/07 10:52:21;;;;;;;;;;;;;;;25.02;55.24;95047.91;5093249;28;1155;-49
2022/06/07 10:55:13;;;;;;;;;;;;;;;25.07;51.59;95042.50;5093824;28;1023;-49
2022/06/07 10:57:58;;;;;;;;;;;;;;;25.18;53.67;95043.47;5093601;28;1025;-49
2022/06/07 11:00:30;;;;;;;;;;;;;;;25.19;56.22;95039.63;5093681;28;1077;-49
2022/06/07 11:03:02;;;;;;;;;;;;;;;25.26;55.29;95034.00;5093693;28;1036;-49
2022/06/07 11:11:06;;;;;;;;;;;;;;;25.51;54.53;95031.53;5113946;28;1035;-49
2022/06/07 11:13:55;;;;;;;;;;;;;;;25.49;53.13;95025.50;5113654;28;1034;-49
2022/06/07 11:16:40;;;;;;;;;;;;;;;25.59;53.21;95013.00;5075369;28;1962;-49
2022/06/07 11:19:08;;;;;;;;;;;;;;;25.45;46.44;95018.06;5101872;28;2915;-49
2022/06/07 11:21:36;;;;;;;;;;;;;;;25.31;51.43;95015.75;5092029;28;1040;-49
2022/06/07 11:24:15;;;;;;;;;;;;;;;25.37;51.44;95013.88;5090705;28;2887;-50
2022/06/07 11:27:02;;;;;;;;;;;;;;;25.45;51.67;95005.19;5091964;28;2894;-48
2022/06/07 11:29:29;;;;;;;;;;;;;;;25.38;50.24;95006.50;5092890;28;2911;-49
2022/06/07 11:31:55;;;;;;;;;;;;;;;25.25;51.03;94999.50;5083442;28;1236;-49
2022/06/07 11:34:33;;;;;;;;;;;;;;;25.40;51.40;95001.59;5080879;28;1334;-49
2022/06/07 11:37:02;;;;;;;;;;;;;;;25.38;50.17;94990.88;5081109;28;1346;-49
2022/06/07 11:39:30;;;;;;;;;;;;;;;25.35;48.76;94991.44;5081687;28;1580;-49
2022/06/07 11:41:58;;;;;;;;;;;;;;;25.43;48.94;94996.44;5083009;28;2562;-49
2022/06/07 11:44:26;;;;;;;;;;;;;;;25.52;50.27;94985.84;5081937;28;1946;-49
2022/06/07 11:46:57;;;;;;;;;;;;;;;25.66;52.43;94983.50;5090780;28;1593;-50
2022/06/07 11:49:23;;;;;;;;;;;;;;;25.77;51.49;94974.28;5097251;28;1048;-50
2022/06/07 11:52:00;;;;;;;;;;;;;;;25.81;52.59;94972.69;5089061;28;1641;-49
2022/06/07 11:54:30;;;;;;;;;;;;;;;25.82;47.89;94968.88;5086325;28;1558;-49
2022/06/07 11:56:59;;;;;;;;;;;;;;;25.77;49.15;94966.09;5091561;28;1567;-49
2022/06/07 11:59:42;;;;;;;;;;;;;;;25.73;49.62;94959.47;5075128;28;1010;-49
2022/06/07 12:02:14;;;;;;;;;;;;;;;25.72;48.05;94960.56;5076642;28;1076;-49
2022/06/07 12:04:40;;;;;;;;;;;;;;;25.75;46.21;94956.50;5076486;28;1918;-49
2022/06/07 12:07:13;;;;;;;;;;;;;;;25.72;42.45;94960.56;5111238;28;1157;-49
2022/06/07 12:09:45;;;;;;;;;;;;;;;25.71;44.37;94954.25;5116809;27;1059;-48
2022/06/07 12:12:19;;;;;;;;;;;;;;;25.69;47.16;94956.44;5116092;28;1039;-49
2022/06/07 12:14:49;;;;;;;;;;;;;;;25.74;42.04;94954.81;5116782;28;1000;-49
2022/06/07 12:17:26;;;;;;;;;;;;;;;25.74;44.29;94949.34;5117268;28;1034;-49
2022/06/07 12:19:52;;;;;;;;;;;;;;;25.64;44.90;94950.09;5101930;28;2900;-49
2022/06/07 12:22:19;;;;;;;;;;;;;;;25.70;45.82;94949.03;5095649;28;1060;-49
2022/06/07 12:24:54;;;;;;;;;;;;;;;25.79;45.10;94944.75;5096061;28;1910;-49
2022/06/07 12:27:25;;;;;;;;;;;;;;;25.81;44.39;94936.28;5096701;28;960;-49
2022/06/07 12:29:54;;;;;;;;;;;;;;;25.84;46.79;94930.28;5096200;28;1071;-49
2022/06/07 12:32:22;;;;;;;;;;;;;;;25.82;45.42;94936.00;5096252;28;1585;-49
2022/06/07 12:35:02;;;;;;;;;;;;;;;25.87;49.25;94929.72;5095992;28;953;-49
2022/06/07 12:37:28;;;;;;;;;;;;;;;25.87;47.61;94929.72;5096044;28;1017;-48
2022/06/07 12:39:57;;;;;;;;;;;;;;;25.81;45.64;94923.41;5095946;28;1041;-48
2022/06/07 12:42:24;;;;;;;;;;;;;;;25.75;46.53;94926.38;5096084;28;1012;-49
2022/06/07 12:44:52;;;;;;;;;;;;;;;25.86;50.08;94922.63;5095888;28;1997;-49
2022/06/07 12:47:23;;;;;;;;;;;;;;;25.90;48.13;94918.25;5095988;28;1008;-48
2022/06/07 12:49:50;;;;;;;;;;;;;;;25.87;46.96;94916.03;5095686;28;1079;-50
2022/06/07 12:52:26;;;;;;;;;;;;;;;25.85;47.70;94904.53;5095940;28;1188;-50
2022/06/07 12:54:53;;;;;;;;;;;;;;;25.83;45.93;94909.44;5095559;28;978;-49
2022/06/07 12:57:21;;;;;;;;;;;;;;;25.81;48.06;94901.50;5094834;28;1072;-50
2022/06/07 13:00:00;;;;;;;;;;;;;;;25.89;47.77;94903.72;5095911;28;1031;-51
2022/06/07 13:02:31;;;;;;;;;;;;;;;25.98;49.18;94889.59;5095806;28;953;-52
2022/06/07 13:04:59;;;;;;;;;;;;;;;26.10;49.86;94896.53;5095333;28;2005;-50
2022/06/07 13:07:32;;;;;;;;;;;;;;;26.13;51.39;94888.88;5115497;28;1129;-50
2022/06/07 13:10:01;;;;;;;;;;;;;;;26.18;51.28;94891.59;5116179;28;1040;-53
2022/06/07 13:12:28;;;;;;;;;;;;;;;26.12;50.31;94890.75;5116239;28;969;-50
2022/06/07 13:14:55;;;;;;;;;;;;;;;26.24;48.79;94896.88;5115934;28;1161;-50
2022/06/07 13:17:41;;;;;;;;;;;;;;;26.17;50.66;94890.78;5116110;28;965;-51
2022/06/07 13:20:11;;;;;;;;;;;;;;;26.16;51.97;94880.09;5098668;28;3137;-51
2022/06/07 13:22:39;;;;;;;;;;;;;;;26.12;47.46;94888.00;5095256;28;1011;-50
2022/06/07 13:25:26;;;;;;;;;;;;;;;26.06;47.61;94881.69;5095248;28;1914;-51
2022/06/07 13:28:01;;;;;;;;;;;;;;;26.03;51.26;94873.19;5095152;28;1111;-51
2022/06/07 13:30:34;;;;;;;;;;;;;;;25.90;50.42;94875.25;5095211;28;973;-52
2022/06/07 13:33:15;;;;;;;;;;;;;;;25.96;51.06;94867.13;5095184;28;1095;-52